sensor_id;sensor_type;location;lat;lon;timestamp;P1;durP1;ratioP1;P2;durP2;ratioP2
23123;SDS011;11731;48.592;8.858;2023-04-10T00:00:31;12.10;;;8.37;;
23123;SDS011;11731;48.592;8.858;2023-04-10T00:02:59;12.07;;;8.00;;
23123;SDS011;11731;48.592;8.858;2023-04-10T00:05:26;10.57;;;7.30;;
23123;SDS011;11731;48.592;8.858;2023-04-10T00:07:53;10.27;;;7.90;;
23123;SDS011;11731;48.592;8.858;2023-04-10T00:10:21;9.97;;;7.23;;
23123;SDS011;11731;48.592;8.858;2023-04-10T00:12:50;10.87;;;7.63;;
23123;SDS011;11731;48.592;8.858;2023-04-10T00:15:18;11.80;;;7.70;;
23123;SDS011;11731;48.592;8.858;2023-04-10T00:17:44;11.67;;;8.10;;
23123;SDS011;11731;48.592;8.858;2023-04-10T00:20:11;12.33;;;8.17;;
23123;SDS011;11731;48.592;8.858;2023-04-10T00:22:38;10.13;;;7.47;;
23123;SDS011;11731;48.592;8.858;2023-04-10T00:25:06;11.83;;;8.00;;
23123;SDS011;11731;48.592;8.858;2023-04-10T00:27:34;12.07;;;7.67;;
23123;SDS011;11731;48.592;8.858;2023-04-10T00:30:01;10.77;;;7.23;;
23123;SDS011;11731;48.592;8.858;2023-04-10T00:32:28;12.20;;;7.57;;
23123;SDS011;11731;48.592;8.858;2023-04-10T00:34:55;10.90;;;8.20;;
23123;SDS011;11731;48.592;8.858;2023-04-10T00:37:22;10.77;;;7.47;;
23123;SDS011;11731;48.592;8.858;2023-04-10T00:39:49;10.93;;;7.50;;
23123;SDS011;11731;48.592;8.858;2023-04-10T00:42:16;12.97;;;8.33;;
23123;SDS011;11731;48.592;8.858;2023-04-10T00:44:44;11.80;;;7.67;;
23123;SDS011;11731;48.592;8.858;2023-04-10T00:47:11;11.23;;;7.93;;
23123;SDS011;11731;48.592;8.858;2023-04-10T00:49:39;10.13;;;7.73;;
23123;SDS011;11731;48.592;8.858;2023-04-10T00:52:07;10.87;;;7.50;;
23123;SDS011;11731;48.592;8.858;2023-04-10T00:54:34;9.80;;;7.40;;
23123;SDS011;11731;48.592;8.858;2023-04-10T00:57:01;11.23;;;7.53;;
23123;SDS011;11731;48.592;8.858;2023-04-10T00:59:28;10.63;;;7.07;;
23123;SDS011;11731;48.592;8.858;2023-04-10T01:01:57;10.50;;;7.13;;
23123;SDS011;11731;48.592;8.858;2023-04-10T01:04:24;11.93;;;7.37;;
23123;SDS011;11731;48.592;8.858;2023-04-10T01:06:56;9.93;;;7.00;;
23123;SDS011;11731;48.592;8.858;2023-04-10T01:09:31;9.73;;;6.97;;
23123;SDS011;11731;48.592;8.858;2023-04-10T01:12:07;10.03;;;7.00;;
23123;SDS011;11731;48.592;8.858;2023-04-10T01:14:52;10.40;;;7.03;;
23123;SDS011;11731;48.592;8.858;2023-04-10T01:17:30;8.77;;;6.80;;
23123;SDS011;11731;48.592;8.858;2023-04-10T01:20:01;10.90;;;7.77;;
23123;SDS011;11731;48.592;8.858;2023-04-10T01:22:33;10.60;;;7.40;;
23123;SDS011;11731;48.592;8.858;2023-04-10T01:25:11;8.97;;;7.07;;
23123;SDS011;11731;48.592;8.858;2023-04-10T01:27:59;9.73;;;6.97;;
23123;SDS011;11731;48.592;8.858;2023-04-10T01:30:37;10.83;;;7.57;;
23123;SDS011;11731;48.592;8.858;2023-04-10T01:33:05;11.63;;;7.93;;
23123;SDS011;11731;48.592;8.858;2023-04-10T01:35:37;10.33;;;7.57;;
23123;SDS011;11731;48.592;8.858;2023-04-10T01:38:07;11.90;;;7.70;;
23123;SDS011;11731;48.592;8.858;2023-04-10T01:40:36;12.07;;;7.73;;
23123;SDS011;11731;48.592;8.858;2023-04-10T01:43:06;10.43;;;7.27;;
23123;SDS011;11731;48.592;8.858;2023-04-10T01:45:35;9.67;;;6.33;;
23123;SDS011;11731;48.592;8.858;2023-04-10T01:48:07;9.47;;;6.67;;
23123;SDS011;11731;48.592;8.858;2023-04-10T01:50:34;9.80;;;6.73;;
23123;SDS011;11731;48.592;8.858;2023-04-10T01:53:02;8.93;;;6.60;;
23123;SDS011;11731;48.592;8.858;2023-04-10T01:55:31;9.43;;;6.50;;
23123;SDS011;11731;48.592;8.858;2023-04-10T01:58:00;9.73;;;7.03;;
23123;SDS011;11731;48.592;8.858;2023-04-10T02:00:28;9.50;;;6.60;;
23123;SDS011;11731;48.592;8.858;2023-04-10T02:02:57;9.40;;;6.50;;
23123;SDS011;11731;48.592;8.858;2023-04-10T02:05:24;12.33;;;6.70;;
23123;SDS011;11731;48.592;8.858;2023-04-10T02:08:01;8.80;;;6.20;;
23123;SDS011;11731;48.592;8.858;2023-04-10T02:10:36;9.63;;;6.50;;
23123;SDS011;11731;48.592;8.858;2023-04-10T02:13:10;9.07;;;6.50;;
23123;SDS011;11731;48.592;8.858;2023-04-10T02:15:40;10.33;;;6.73;;
23123;SDS011;11731;48.592;8.858;2023-04-10T02:18:13;8.87;;;6.50;;
23123;SDS011;11731;48.592;8.858;2023-04-10T02:20:42;8.50;;;6.50;;
23123;SDS011;11731;48.592;8.858;2023-04-10T02:23:09;9.87;;;6.93;;
23123;SDS011;11731;48.592;8.858;2023-04-10T02:25:36;9.67;;;6.47;;
23123;SDS011;11731;48.592;8.858;2023-04-10T02:28:03;8.50;;;6.57;;
23123;SDS011;11731;48.592;8.858;2023-04-10T02:30:31;9.27;;;6.43;;
23123;SDS011;11731;48.592;8.858;2023-04-10T02:32:58;11.67;;;6.57;;
23123;SDS011;11731;48.592;8.858;2023-04-10T02:35:26;9.63;;;6.57;;
23123;SDS011;11731;48.592;8.858;2023-04-10T02:37:53;10.53;;;6.80;;
23123;SDS011;11731;48.592;8.858;2023-04-10T02:40:21;12.00;;;7.20;;
23123;SDS011;11731;48.592;8.858;2023-04-10T02:42:48;8.37;;;6.53;;
23123;SDS011;11731;48.592;8.858;2023-04-10T02:45:15;9.37;;;6.10;;
23123;SDS011;11731;48.592;8.858;2023-04-10T02:47:42;9.83;;;6.37;;
23123;SDS011;11731;48.592;8.858;2023-04-10T02:50:09;10.03;;;6.97;;
23123;SDS011;11731;48.592;8.858;2023-04-10T02:52:37;9.47;;;6.70;;
23123;SDS011;11731;48.592;8.858;2023-04-10T02:55:04;12.27;;;7.03;;
23123;SDS011;11731;48.592;8.858;2023-04-10T02:57:33;9.23;;;6.60;;
23123;SDS011;11731;48.592;8.858;2023-04-10T03:00:00;9.47;;;6.87;;
23123;SDS011;11731;48.592;8.858;2023-04-10T03:02:27;9.10;;;6.90;;
23123;SDS011;11731;48.592;8.858;2023-04-10T03:04:53;8.90;;;6.20;;
23123;SDS011;11731;48.592;8.858;2023-04-10T03:07:20;8.93;;;6.07;;
23123;SDS011;11731;48.592;8.858;2023-04-10T03:09:48;10.07;;;6.40;;
23123;SDS011;11731;48.592;8.858;2023-04-10T03:12:15;10.23;;;6.60;;
23123;SDS011;11731;48.592;8.858;2023-04-10T03:14:42;9.83;;;6.37;;
23123;SDS011;11731;48.592;8.858;2023-04-10T03:17:09;7.60;;;5.93;;
23123;SDS011;11731;48.592;8.858;2023-04-10T03:19:37;9.73;;;6.43;;
23123;SDS011;11731;48.592;8.858;2023-04-10T03:22:04;8.50;;;6.30;;
23123;SDS011;11731;48.592;8.858;2023-04-10T03:24:31;9.03;;;6.50;;
23123;SDS011;11731;48.592;8.858;2023-04-10T03:26:59;8.37;;;6.17;;
23123;SDS011;11731;48.592;8.858;2023-04-10T03:29:26;9.60;;;7.07;;
23123;SDS011;11731;48.592;8.858;2023-04-10T03:31:53;9.70;;;6.57;;
23123;SDS011;11731;48.592;8.858;2023-04-10T03:36:54;9.60;;;6.70;;
23123;SDS011;11731;48.592;8.858;2023-04-10T03:39:21;7.63;;;6.07;;
23123;SDS011;11731;48.592;8.858;2023-04-10T03:41:48;8.53;;;5.93;;
23123;SDS011;11731;48.592;8.858;2023-04-10T03:44:17;9.13;;;6.33;;
23123;SDS011;11731;48.592;8.858;2023-04-10T03:46:44;8.67;;;6.00;;
23123;SDS011;11731;48.592;8.858;2023-04-10T03:49:10;8.53;;;6.13;;
23123;SDS011;11731;48.592;8.858;2023-04-10T03:51:37;8.50;;;6.23;;
23123;SDS011;11731;48.592;8.858;2023-04-10T03:54:04;7.87;;;5.90;;
23123;SDS011;11731;48.592;8.858;2023-04-10T03:56:31;8.83;;;5.70;;
23123;SDS011;11731;48.592;8.858;2023-04-10T03:58:58;8.53;;;6.00;;
23123;SDS011;11731;48.592;8.858;2023-04-10T04:04:08;8.43;;;5.87;;
23123;SDS011;11731;48.592;8.858;2023-04-10T04:06:36;8.23;;;5.50;;
23123;SDS011;11731;48.592;8.858;2023-04-10T04:09:02;9.47;;;6.03;;
23123;SDS011;11731;48.592;8.858;2023-04-10T04:11:29;8.13;;;6.20;;
23123;SDS011;11731;48.592;8.858;2023-04-10T04:13:56;8.57;;;5.87;;
23123;SDS011;11731;48.592;8.858;2023-04-10T04:16:23;7.17;;;5.57;;
23123;SDS011;11731;48.592;8.858;2023-04-10T04:18:52;9.20;;;6.17;;
23123;SDS011;11731;48.592;8.858;2023-04-10T04:21:19;9.17;;;6.20;;
23123;SDS011;11731;48.592;8.858;2023-04-10T04:24:07;7.70;;;5.40;;
23123;SDS011;11731;48.592;8.858;2023-04-10T04:26:34;7.03;;;5.33;;
23123;SDS011;11731;48.592;8.858;2023-04-10T04:29:01;8.67;;;6.20;;
23123;SDS011;11731;48.592;8.858;2023-04-10T04:31:28;7.03;;;5.40;;
23123;SDS011;11731;48.592;8.858;2023-04-10T04:33:57;7.93;;;6.00;;
23123;SDS011;11731;48.592;8.858;2023-04-10T04:36:24;8.93;;;5.70;;
23123;SDS011;11731;48.592;8.858;2023-04-10T04:38:51;8.80;;;6.00;;
23123;SDS011;11731;48.592;8.858;2023-04-10T04:41:18;10.10;;;5.63;;
23123;SDS011;11731;48.592;8.858;2023-04-10T04:43:46;7.47;;;5.30;;
23123;SDS011;11731;48.592;8.858;2023-04-10T04:46:13;9.13;;;6.40;;
23123;SDS011;11731;48.592;8.858;2023-04-10T04:48:40;8.27;;;5.73;;
23123;SDS011;11731;48.592;8.858;2023-04-10T04:51:09;7.57;;;5.47;;
23123;SDS011;11731;48.592;8.858;2023-04-10T04:53:35;9.67;;;6.03;;
23123;SDS011;11731;48.592;8.858;2023-04-10T04:56:02;8.00;;;5.83;;
23123;SDS011;11731;48.592;8.858;2023-04-10T04:58:30;9.77;;;5.93;;
23123;SDS011;11731;48.592;8.858;2023-04-10T05:00:57;9.50;;;5.80;;
23123;SDS011;11731;48.592;8.858;2023-04-10T05:03:24;8.47;;;5.97;;
23123;SDS011;11731;48.592;8.858;2023-04-10T05:05:52;10.40;;;5.70;;
23123;SDS011;11731;48.592;8.858;2023-04-10T05:11:37;8.43;;;5.27;;
23123;SDS011;11731;48.592;8.858;2023-04-10T05:14:05;7.60;;;5.47;;
23123;SDS011;11731;48.592;8.858;2023-04-10T05:17:05;7.70;;;5.67;;
23123;SDS011;11731;48.592;8.858;2023-04-10T05:19:59;8.93;;;6.13;;
23123;SDS011;11731;48.592;8.858;2023-04-10T05:22:26;7.30;;;4.97;;
23123;SDS011;11731;48.592;8.858;2023-04-10T05:24:53;8.57;;;5.60;;
23123;SDS011;11731;48.592;8.858;2023-04-10T05:27:22;8.43;;;5.97;;
23123;SDS011;11731;48.592;8.858;2023-04-10T05:29:49;8.00;;;6.13;;
23123;SDS011;11731;48.592;8.858;2023-04-10T05:32:16;7.77;;;6.20;;
23123;SDS011;11731;48.592;8.858;2023-04-10T05:34:43;10.10;;;6.23;;
23123;SDS011;11731;48.592;8.858;2023-04-10T05:37:10;8.10;;;6.30;;
23123;SDS011;11731;48.592;8.858;2023-04-10T05:39:37;8.80;;;6.60;;
23123;SDS011;11731;48.592;8.858;2023-04-10T05:42:04;9.07;;;7.03;;
23123;SDS011;11731;48.592;8.858;2023-04-10T05:44:35;7.90;;;5.57;;
23123;SDS011;11731;48.592;8.858;2023-04-10T05:47:03;9.40;;;5.83;;
23123;SDS011;11731;48.592;8.858;2023-04-10T05:49:34;7.47;;;5.80;;
23123;SDS011;11731;48.592;8.858;2023-04-10T05:52:03;9.10;;;6.40;;
23123;SDS011;11731;48.592;8.858;2023-04-10T05:54:32;7.27;;;5.47;;
23123;SDS011;11731;48.592;8.858;2023-04-10T05:56:59;8.07;;;5.33;;
23123;SDS011;11731;48.592;8.858;2023-04-10T05:59:26;8.23;;;5.27;;
23123;SDS011;11731;48.592;8.858;2023-04-10T06:01:56;8.07;;;5.73;;
23123;SDS011;11731;48.592;8.858;2023-04-10T06:04:23;8.90;;;6.00;;
23123;SDS011;11731;48.592;8.858;2023-04-10T06:06:50;9.23;;;5.80;;
23123;SDS011;11731;48.592;8.858;2023-04-10T06:09:23;9.47;;;6.23;;
23123;SDS011;11731;48.592;8.858;2023-04-10T06:11:50;8.00;;;5.90;;
23123;SDS011;11731;48.592;8.858;2023-04-10T06:15:59;8.10;;;6.03;;
23123;SDS011;11731;48.592;8.858;2023-04-10T06:17:21;9.77;;;6.70;;
23123;SDS011;11731;48.592;8.858;2023-04-10T06:22:57;10.23;;;6.20;;
23123;SDS011;11731;48.592;8.858;2023-04-10T06:25:24;8.37;;;6.60;;
23123;SDS011;11731;48.592;8.858;2023-04-10T06:27:51;8.37;;;6.60;;
23123;SDS011;11731;48.592;8.858;2023-04-10T06:30:18;8.80;;;6.47;;
23123;SDS011;11731;48.592;8.858;2023-04-10T06:39:06;8.43;;;6.20;;
23123;SDS011;11731;48.592;8.858;2023-04-10T06:41:33;9.17;;;6.67;;
23123;SDS011;11731;48.592;8.858;2023-04-10T06:44:00;7.77;;;6.23;;
23123;SDS011;11731;48.592;8.858;2023-04-10T06:46:27;8.07;;;6.23;;
23123;SDS011;11731;48.592;8.858;2023-04-10T06:48:53;8.47;;;5.83;;
23123;SDS011;11731;48.592;8.858;2023-04-10T06:51:20;7.27;;;5.70;;
23123;SDS011;11731;48.592;8.858;2023-04-10T06:53:50;7.83;;;6.07;;
23123;SDS011;11731;48.592;8.858;2023-04-10T06:59:26;8.60;;;6.23;;
23123;SDS011;11731;48.592;8.858;2023-04-10T07:01:53;8.03;;;6.00;;
23123;SDS011;11731;48.592;8.858;2023-04-10T07:04:20;8.70;;;6.83;;
23123;SDS011;11731;48.592;8.858;2023-04-10T07:06:47;10.70;;;6.80;;
23123;SDS011;11731;48.592;8.858;2023-04-10T07:09:14;7.43;;;5.73;;
23123;SDS011;11731;48.592;8.858;2023-04-10T07:15:13;8.73;;;6.17;;
23123;SDS011;11731;48.592;8.858;2023-04-10T07:17:43;8.23;;;5.50;;
23123;SDS011;11731;48.592;8.858;2023-04-10T07:20:10;7.97;;;6.17;;
23123;SDS011;11731;48.592;8.858;2023-04-10T07:22:53;7.80;;;5.70;;
23123;SDS011;11731;48.592;8.858;2023-04-10T07:25:20;7.43;;;5.50;;
23123;SDS011;11731;48.592;8.858;2023-04-10T07:28:01;6.73;;;5.20;;
23123;SDS011;11731;48.592;8.858;2023-04-10T07:30:31;8.07;;;5.37;;
23123;SDS011;11731;48.592;8.858;2023-04-10T07:34:39;7.37;;;5.50;;
23123;SDS011;11731;48.592;8.858;2023-04-10T07:36:26;6.97;;;5.33;;
23123;SDS011;11731;48.592;8.858;2023-04-10T07:41:43;6.87;;;5.30;;
23123;SDS011;11731;48.592;8.858;2023-04-10T07:44:30;6.73;;;5.20;;
23123;SDS011;11731;48.592;8.858;2023-04-10T07:46:59;5.80;;;4.67;;
23123;SDS011;11731;48.592;8.858;2023-04-10T07:49:25;7.67;;;6.43;;
23123;SDS011;11731;48.592;8.858;2023-04-10T07:51:52;5.43;;;4.70;;
23123;SDS011;11731;48.592;8.858;2023-04-10T07:54:39;5.20;;;4.40;;
23123;SDS011;11731;48.592;8.858;2023-04-10T07:57:06;4.83;;;4.00;;
23123;SDS011;11731;48.592;8.858;2023-04-10T07:59:33;5.17;;;4.20;;
23123;SDS011;11731;48.592;8.858;2023-04-10T08:02:01;9.57;;;5.03;;
23123;SDS011;11731;48.592;8.858;2023-04-10T08:07:39;4.73;;;3.67;;
23123;SDS011;11731;48.592;8.858;2023-04-10T08:10:08;4.07;;;3.40;;
23123;SDS011;11731;48.592;8.858;2023-04-10T08:12:37;5.43;;;4.17;;
23123;SDS011;11731;48.592;8.858;2023-04-10T08:15:05;4.30;;;3.60;;
23123;SDS011;11731;48.592;8.858;2023-04-10T08:17:33;4.40;;;3.60;;
23123;SDS011;11731;48.592;8.858;2023-04-10T08:20:01;4.83;;;3.80;;
23123;SDS011;11731;48.592;8.858;2023-04-10T08:22:28;5.67;;;4.17;;
23123;SDS011;11731;48.592;8.858;2023-04-10T08:24:57;4.10;;;3.70;;
23123;SDS011;11731;48.592;8.858;2023-04-10T08:27:24;4.53;;;3.77;;
23123;SDS011;11731;48.592;8.858;2023-04-10T08:29:52;4.63;;;3.80;;
23123;SDS011;11731;48.592;8.858;2023-04-10T08:32:19;4.17;;;3.70;;
23123;SDS011;11731;48.592;8.858;2023-04-10T08:34:51;4.53;;;3.40;;
23123;SDS011;11731;48.592;8.858;2023-04-10T08:37:33;4.40;;;3.60;;
23123;SDS011;11731;48.592;8.858;2023-04-10T08:40:53;3.97;;;3.57;;
23123;SDS011;11731;48.592;8.858;2023-04-10T08:45:46;4.47;;;3.83;;
23123;SDS011;11731;48.592;8.858;2023-04-10T08:48:13;3.57;;;3.20;;
23123;SDS011;11731;48.592;8.858;2023-04-10T08:50:45;3.30;;;3.00;;
23123;SDS011;11731;48.592;8.858;2023-04-10T08:53:13;3.97;;;3.50;;
23123;SDS011;11731;48.592;8.858;2023-04-10T08:55:43;4.20;;;3.50;;
23123;SDS011;11731;48.592;8.858;2023-04-10T08:58:13;3.97;;;3.10;;
23123;SDS011;11731;48.592;8.858;2023-04-10T09:00:50;3.63;;;3.00;;
23123;SDS011;11731;48.592;8.858;2023-04-10T09:03:41;3.93;;;3.53;;
23123;SDS011;11731;48.592;8.858;2023-04-10T09:06:09;3.33;;;3.03;;
23123;SDS011;11731;48.592;8.858;2023-04-10T09:08:36;4.77;;;3.53;;
23123;SDS011;11731;48.592;8.858;2023-04-10T09:11:03;3.33;;;3.03;;
23123;SDS011;11731;48.592;8.858;2023-04-10T09:13:35;3.77;;;3.07;;
23123;SDS011;11731;48.592;8.858;2023-04-10T09:20:00;4.93;;;3.03;;
23123;SDS011;11731;48.592;8.858;2023-04-10T09:25:29;3.50;;;3.20;;
23123;SDS011;11731;48.592;8.858;2023-04-10T09:28:01;3.63;;;3.10;;
23123;SDS011;11731;48.592;8.858;2023-04-10T09:30:32;4.17;;;3.30;;
23123;SDS011;11731;48.592;8.858;2023-04-10T09:33:19;3.50;;;3.20;;
23123;SDS011;11731;48.592;8.858;2023-04-10T09:35:47;4.17;;;3.10;;
23123;SDS011;11731;48.592;8.858;2023-04-10T09:38:15;3.70;;;3.40;;
23123;SDS011;11731;48.592;8.858;2023-04-10T09:40:44;3.67;;;3.20;;
23123;SDS011;11731;48.592;8.858;2023-04-10T09:43:18;3.93;;;3.20;;
23123;SDS011;11731;48.592;8.858;2023-04-10T09:45:50;3.33;;;3.00;;
23123;SDS011;11731;48.592;8.858;2023-04-10T09:48:18;4.07;;;3.37;;
23123;SDS011;11731;48.592;8.858;2023-04-10T09:50:45;4.37;;;3.17;;
23123;SDS011;11731;48.592;8.858;2023-04-10T09:53:20;3.23;;;2.73;;
23123;SDS011;11731;48.592;8.858;2023-04-10T09:55:53;3.67;;;3.17;;
23123;SDS011;11731;48.592;8.858;2023-04-10T09:58:21;2.90;;;2.60;;
23123;SDS011;11731;48.592;8.858;2023-04-10T10:00:49;3.27;;;2.90;;
23123;SDS011;11731;48.592;8.858;2023-04-10T10:03:16;3.20;;;2.90;;
23123;SDS011;11731;48.592;8.858;2023-04-10T10:05:46;3.10;;;2.70;;
23123;SDS011;11731;48.592;8.858;2023-04-10T10:08:15;3.03;;;2.60;;
23123;SDS011;11731;48.592;8.858;2023-04-10T10:10:45;2.80;;;2.57;;
23123;SDS011;11731;48.592;8.858;2023-04-10T10:13:15;3.43;;;2.53;;
23123;SDS011;11731;48.592;8.858;2023-04-10T10:15:48;3.30;;;2.60;;
23123;SDS011;11731;48.592;8.858;2023-04-10T10:18:24;2.90;;;2.60;;
23123;SDS011;11731;48.592;8.858;2023-04-10T10:20:58;2.70;;;2.50;;
23123;SDS011;11731;48.592;8.858;2023-04-10T10:23:25;2.70;;;2.50;;
23123;SDS011;11731;48.592;8.858;2023-04-10T10:25:53;3.03;;;2.80;;
23123;SDS011;11731;48.592;8.858;2023-04-10T10:28:32;3.03;;;2.73;;
23123;SDS011;11731;48.592;8.858;2023-04-10T10:31:02;2.73;;;2.43;;
23123;SDS011;11731;48.592;8.858;2023-04-10T10:33:35;2.80;;;2.50;;
23123;SDS011;11731;48.592;8.858;2023-04-10T10:36:19;2.67;;;2.47;;
23123;SDS011;11731;48.592;8.858;2023-04-10T10:38:49;2.40;;;2.20;;
23123;SDS011;11731;48.592;8.858;2023-04-10T10:41:24;3.30;;;2.50;;
23123;SDS011;11731;48.592;8.858;2023-04-10T10:44:00;2.27;;;2.07;;
23123;SDS011;11731;48.592;8.858;2023-04-10T10:46:34;2.87;;;2.47;;
23123;SDS011;11731;48.592;8.858;2023-04-10T10:49:05;2.57;;;2.33;;
23123;SDS011;11731;48.592;8.858;2023-04-10T10:51:41;2.47;;;2.20;;
23123;SDS011;11731;48.592;8.858;2023-04-10T10:54:26;2.70;;;2.40;;
23123;SDS011;11731;48.592;8.858;2023-04-10T10:57:01;2.27;;;2.07;;
23123;SDS011;11731;48.592;8.858;2023-04-10T11:02:22;2.13;;;1.93;;
23123;SDS011;11731;48.592;8.858;2023-04-10T11:04:50;2.10;;;1.90;;
23123;SDS011;11731;48.592;8.858;2023-04-10T11:07:16;2.10;;;1.90;;
23123;SDS011;11731;48.592;8.858;2023-04-10T11:09:48;2.37;;;2.10;;
23123;SDS011;11731;48.592;8.858;2023-04-10T11:12:17;2.17;;;1.97;;
23123;SDS011;11731;48.592;8.858;2023-04-10T11:14:56;2.60;;;2.17;;
23123;SDS011;11731;48.592;8.858;2023-04-10T11:20:14;2.03;;;1.87;;
23123;SDS011;11731;48.592;8.858;2023-04-10T11:25:47;3.30;;;1.70;;
23123;SDS011;11731;48.592;8.858;2023-04-10T11:31:18;2.10;;;1.90;;
23123;SDS011;11731;48.592;8.858;2023-04-10T11:33:46;1.80;;;1.60;;
23123;SDS011;11731;48.592;8.858;2023-04-10T11:36:16;2.23;;;1.90;;
23123;SDS011;11731;48.592;8.858;2023-04-10T11:38:55;3.57;;;1.90;;
23123;SDS011;11731;48.592;8.858;2023-04-10T11:44:09;1.50;;;1.40;;
23123;SDS011;11731;48.592;8.858;2023-04-10T11:46:39;2.30;;;1.83;;
23123;SDS011;11731;48.592;8.858;2023-04-10T11:50:10;1.60;;;1.50;;
23123;SDS011;11731;48.592;8.858;2023-04-10T11:57:59;1.60;;;1.50;;
23123;SDS011;11731;48.592;8.858;2023-04-10T12:03:13;1.63;;;1.47;;
23123;SDS011;11731;48.592;8.858;2023-04-10T12:05:44;1.63;;;1.53;;
23123;SDS011;11731;48.592;8.858;2023-04-10T12:08:11;1.97;;;1.50;;
23123;SDS011;11731;48.592;8.858;2023-04-10T12:10:51;2.80;;;1.80;;
23123;SDS011;11731;48.592;8.858;2023-04-10T12:13:34;2.20;;;1.63;;
23123;SDS011;11731;48.592;8.858;2023-04-10T12:16:07;1.23;;;1.13;;
23123;SDS011;11731;48.592;8.858;2023-04-10T12:18:37;1.10;;;1.00;;
23123;SDS011;11731;48.592;8.858;2023-04-10T12:21:04;1.30;;;1.20;;
23123;SDS011;11731;48.592;8.858;2023-04-10T12:23:50;1.43;;;1.20;;
23123;SDS011;11731;48.592;8.858;2023-04-10T12:26:17;1.10;;;1.00;;
23123;SDS011;11731;48.592;8.858;2023-04-10T12:28:49;1.27;;;1.13;;
23123;SDS011;11731;48.592;8.858;2023-04-10T12:31:54;1.10;;;1.00;;
23123;SDS011;11731;48.592;8.858;2023-04-10T12:34:34;1.30;;;1.20;;
23123;SDS011;11731;48.592;8.858;2023-04-10T12:37:44;1.50;;;1.13;;
23123;SDS011;11731;48.592;8.858;2023-04-10T12:39:50;1.77;;;1.17;;
23123;SDS011;11731;48.592;8.858;2023-04-10T12:42:18;1.20;;;1.10;;
23123;SDS011;11731;48.592;8.858;2023-04-10T12:44:50;1.23;;;1.10;;
23123;SDS011;11731;48.592;8.858;2023-04-10T12:47:18;1.20;;;1.10;;
23123;SDS011;11731;48.592;8.858;2023-04-10T12:50:08;1.70;;;1.00;;
23123;SDS011;11731;48.592;8.858;2023-04-10T12:52:37;0.70;;;0.70;;
23123;SDS011;11731;48.592;8.858;2023-04-10T12:55:51;1.20;;;1.10;;
23123;SDS011;11731;48.592;8.858;2023-04-10T12:58:17;0.80;;;0.80;;
23123;SDS011;11731;48.592;8.858;2023-04-10T13:01:16;2.70;;;0.90;;
23123;SDS011;11731;48.592;8.858;2023-04-10T13:03:43;1.13;;;1.00;;
23123;SDS011;11731;48.592;8.858;2023-04-10T13:06:13;0.80;;;0.80;;
23123;SDS011;11731;48.592;8.858;2023-04-10T13:08:40;1.03;;;1.00;;
23123;SDS011;11731;48.592;8.858;2023-04-10T13:11:07;0.77;;;0.77;;
23123;SDS011;11731;48.592;8.858;2023-04-10T13:13:34;1.10;;;1.00;;
23123;SDS011;11731;48.592;8.858;2023-04-10T13:16:01;1.13;;;0.93;;
23123;SDS011;11731;48.592;8.858;2023-04-10T13:18:28;1.07;;;1.03;;
23123;SDS011;11731;48.592;8.858;2023-04-10T13:20:54;0.90;;;0.90;;
23123;SDS011;11731;48.592;8.858;2023-04-10T13:23:23;0.87;;;0.87;;
23123;SDS011;11731;48.592;8.858;2023-04-10T13:25:49;0.83;;;0.83;;
23123;SDS011;11731;48.592;8.858;2023-04-10T13:28:17;0.90;;;0.90;;
23123;SDS011;11731;48.592;8.858;2023-04-10T13:30:45;1.00;;;0.77;;
23123;SDS011;11731;48.592;8.858;2023-04-10T13:33:13;2.27;;;0.93;;
23123;SDS011;11731;48.592;8.858;2023-04-10T13:35:40;1.00;;;1.00;;
23123;SDS011;11731;48.592;8.858;2023-04-10T13:38:07;1.20;;;1.10;;
23123;SDS011;11731;48.592;8.858;2023-04-10T13:40:40;0.73;;;0.73;;
23123;SDS011;11731;48.592;8.858;2023-04-10T13:43:07;0.80;;;0.80;;
23123;SDS011;11731;48.592;8.858;2023-04-10T13:45:34;1.33;;;1.10;;
23123;SDS011;11731;48.592;8.858;2023-04-10T13:48:00;1.10;;;1.00;;
23123;SDS011;11731;48.592;8.858;2023-04-10T13:50:27;1.00;;;1.00;;
23123;SDS011;11731;48.592;8.858;2023-04-10T13:53:10;1.60;;;1.10;;
23123;SDS011;11731;48.592;8.858;2023-04-10T13:55:37;1.40;;;0.80;;
23123;SDS011;11731;48.592;8.858;2023-04-10T13:58:09;1.00;;;1.00;;
23123;SDS011;11731;48.592;8.858;2023-04-10T14:00:37;1.33;;;0.87;;
23123;SDS011;11731;48.592;8.858;2023-04-10T14:03:04;1.10;;;1.00;;
23123;SDS011;11731;48.592;8.858;2023-04-10T14:05:34;1.33;;;1.07;;
23123;SDS011;11731;48.592;8.858;2023-04-10T14:08:00;1.10;;;1.00;;
23123;SDS011;11731;48.592;8.858;2023-04-10T14:10:27;0.97;;;0.90;;
23123;SDS011;11731;48.592;8.858;2023-04-10T14:12:54;1.77;;;0.93;;
23123;SDS011;11731;48.592;8.858;2023-04-10T14:15:23;1.20;;;1.10;;
23123;SDS011;11731;48.592;8.858;2023-04-10T14:17:50;1.00;;;1.00;;
23123;SDS011;11731;48.592;8.858;2023-04-10T14:20:17;1.10;;;1.00;;
23123;SDS011;11731;48.592;8.858;2023-04-10T14:22:44;1.17;;;1.10;;
23123;SDS011;11731;48.592;8.858;2023-04-10T14:25:12;1.47;;;1.20;;
23123;SDS011;11731;48.592;8.858;2023-04-10T14:27:40;1.10;;;1.00;;
23123;SDS011;11731;48.592;8.858;2023-04-10T14:30:08;2.77;;;1.40;;
23123;SDS011;11731;48.592;8.858;2023-04-10T14:32:36;1.10;;;1.00;;
23123;SDS011;11731;48.592;8.858;2023-04-10T14:35:04;0.80;;;0.80;;
23123;SDS011;11731;48.592;8.858;2023-04-10T14:37:32;1.03;;;0.93;;
23123;SDS011;11731;48.592;8.858;2023-04-10T14:40:39;1.40;;;1.30;;
23123;SDS011;11731;48.592;8.858;2023-04-10T14:43:47;1.10;;;1.00;;
23123;SDS011;11731;48.592;8.858;2023-04-10T14:46:06;0.97;;;0.90;;
23123;SDS011;11731;48.592;8.858;2023-04-10T14:48:34;1.07;;;0.97;;
23123;SDS011;11731;48.592;8.858;2023-04-10T14:51:10;0.90;;;0.90;;
23123;SDS011;11731;48.592;8.858;2023-04-10T14:53:37;1.30;;;0.87;;
23123;SDS011;11731;48.592;8.858;2023-04-10T14:57:14;1.00;;;0.90;;
23123;SDS011;11731;48.592;8.858;2023-04-10T14:59:13;0.90;;;0.90;;
23123;SDS011;11731;48.592;8.858;2023-04-10T15:01:55;1.20;;;1.10;;
23123;SDS011;11731;48.592;8.858;2023-04-10T15:16:45;1.10;;;0.93;;
23123;SDS011;11731;48.592;8.858;2023-04-10T15:19:12;0.77;;;0.77;;
23123;SDS011;11731;48.592;8.858;2023-04-10T15:21:39;1.17;;;1.07;;
23123;SDS011;11731;48.592;8.858;2023-04-10T15:27:17;1.17;;;1.07;;
23123;SDS011;11731;48.592;8.858;2023-04-10T15:29:45;1.10;;;1.03;;
23123;SDS011;11731;48.592;8.858;2023-04-10T15:32:13;1.00;;;0.90;;
23123;SDS011;11731;48.592;8.858;2023-04-10T15:34:40;1.20;;;1.10;;
23123;SDS011;11731;48.592;8.858;2023-04-10T15:37:07;1.07;;;1.00;;
23123;SDS011;11731;48.592;8.858;2023-04-10T15:39:35;1.00;;;1.00;;
23123;SDS011;11731;48.592;8.858;2023-04-10T15:42:02;1.43;;;1.33;;
23123;SDS011;11731;48.592;8.858;2023-04-10T15:44:32;1.10;;;1.00;;
23123;SDS011;11731;48.592;8.858;2023-04-10T15:50:06;1.10;;;1.00;;
23123;SDS011;11731;48.592;8.858;2023-04-10T15:52:41;1.13;;;1.03;;
23123;SDS011;11731;48.592;8.858;2023-04-10T15:55:08;1.17;;;1.03;;
23123;SDS011;11731;48.592;8.858;2023-04-10T15:57:35;1.00;;;1.00;;
23123;SDS011;11731;48.592;8.858;2023-04-10T16:00:02;0.83;;;0.80;;
23123;SDS011;11731;48.592;8.858;2023-04-10T16:02:29;1.00;;;1.00;;
23123;SDS011;11731;48.592;8.858;2023-04-10T16:04:57;1.13;;;1.03;;
23123;SDS011;11731;48.592;8.858;2023-04-10T16:10:24;1.10;;;1.00;;
23123;SDS011;11731;48.592;8.858;2023-04-10T16:15:48;1.20;;;1.10;;
23123;SDS011;11731;48.592;8.858;2023-04-10T16:18:17;1.13;;;1.03;;
23123;SDS011;11731;48.592;8.858;2023-04-10T16:20:46;1.57;;;1.10;;
23123;SDS011;11731;48.592;8.858;2023-04-10T16:24:20;1.50;;;1.30;;
23123;SDS011;11731;48.592;8.858;2023-04-10T16:35:53;1.23;;;1.10;;
23123;SDS011;11731;48.592;8.858;2023-04-10T16:38:21;1.33;;;1.23;;
23123;SDS011;11731;48.592;8.858;2023-04-10T16:40:51;1.20;;;1.10;;
23123;SDS011;11731;48.592;8.858;2023-04-10T16:43:20;3.10;;;1.30;;